Time;durP1;ratioP1;P1;durP2;ratioP2;P2;SDS_P1;SDS_P2;PMS_P1;PMS_P2;Temp;Humidity;BMP_temperature;BMP_pressure;BME280_temperature;BME280_humidity;BME280_pressure;Samples;Min_cycle;Max_cycle;Signal;HPM_P1;HPM_P2
2023/09/06 00:01:16;;;;;;;6.63;4.07;;;16.10;70.00;;;15.15;85.21;96375.91;6109176;23;20422;-66
2023/09/06 00:03:42;;;;;;;5.53;4.18;;;16.10;70.30;;;15.14;85.77;96369.00;6061542;23;20013;-66
2023/09/06 00:06:08;;;;;;;7.03;4.13;;;16.10;70.30;;;15.14;85.43;96369.81;6084962;23;20085;-67
2023/09/06 00:08:34;;;;;;;5.95;4.35;;;16.10;70.20;;;15.13;86.43;96368.19;6110200;23;20013;-67
2023/09/06 00:11:04;;;;;;;4.70;4.20;;;16.00;70.20;;;15.10;86.26;96363.31;6109308;23;20006;-66
2023/09/06 00:13:32;;;;;;;5.07;4.10;;;16.00;70.40;;;15.08;85.22;96360.06;6086109;23;20009;-66
2023/09/06 00:15:58;;;;;;;7.57;4.10;;;15.90;70.30;;;15.05;85.89;96355.19;6109678;23;20006;-66
2023/09/06 00:18:24;;;;;;;5.10;4.10;;;15.90;70.50;;;15.04;87.09;96363.34;6109682;23;20042;-66
2023/09/06 00:20:50;;;;;;;5.57;4.18;;;15.80;70.50;;;15.00;85.57;96362.94;6109057;23;20010;-68
2023/09/06 00:23:17;;;;;;;5.18;4.40;;;15.80;70.30;;;14.98;85.75;96365.00;6111900;23;20010;-68
2023/09/06 00:25:43;;;;;;;5.30;4.13;;;15.80;70.20;;;14.96;86.50;96357.25;6109570;23;20375;-65
2023/09/06 00:28:09;;;;;;;4.55;3.88;;;15.80;70.20;;;14.94;86.68;96353.22;6085042;23;20014;-64
2023/09/06 00:30:38;;;;;;;5.03;4.18;;;15.80;70.40;;;14.89;87.36;96351.16;6108600;23;20078;-66
2023/09/06 00:33:06;;;;;;;5.53;4.22;;;15.80;70.60;;;14.88;86.17;96356.66;6085851;23;20049;-67
2023/09/06 00:35:32;;;;;;;5.78;4.38;;;15.80;70.90;;;14.85;88.07;96359.75;6107524;23;20451;-67
2023/09/06 00:38:00;;;;;;;6.30;3.88;;;15.70;71.10;;;14.83;87.95;96361.78;6061623;23;20060;-67
2023/09/06 00:40:26;;;;;;;6.43;4.03;;;15.70;71.20;;;14.79;88.01;96360.59;6085839;23;22801;-67
2023/09/06 00:42:59;;;;;;;5.10;4.03;;;15.60;71.20;;;14.76;87.65;96361.00;6109462;23;20046;-67
2023/09/06 00:45:28;;;;;;;5.57;4.88;;;15.60;71.30;;;14.74;90.26;96368.34;6086362;23;20109;-66
2023/09/06 00:47:58;;;;;;;6.75;4.43;;;15.60;71.50;;;14.69;89.15;96359.16;6085061;23;20029;-67
2023/09/06 00:50:26;;;;;;;5.18;4.40;;;15.60;71.70;;;14.67;89.33;96361.22;6132696;23;20006;-66
2023/09/06 00:52:51;;;;;;;6.85;4.50;;;15.60;71.90;;;14.66;88.51;96361.41;6084699;23;20403;-67
2023/09/06 00:55:18;;;;;;;6.03;4.57;;;15.50;71.70;;;14.64;89.24;96364.28;6085289;23;20014;-67
2023/09/06 00:57:45;;;;;;;6.15;4.45;;;15.50;71.60;;;14.64;89.79;96371.41;6060949;23;20451;-67
2023/09/06 01:00:23;;;;;;;6.57;4.53;;;15.50;71.50;;;14.62;88.71;96371.63;6084051;23;20014;-66
2023/09/06 01:02:48;;;;;;;6.32;4.40;;;15.50;71.40;;;14.60;88.01;96363.06;6086993;23;20068;-66
2023/09/06 01:05:31;;;;;;;8.77;4.65;;;15.50;71.60;;;14.59;91.18;96365.94;6085617;23;20464;-66
2023/09/06 01:08:00;;;;;;;5.75;4.47;;;15.50;71.90;;;14.56;89.95;96367.16;6084123;23;20014;-67
2023/09/06 01:10:26;;;;;;;5.82;4.60;;;15.50;72.00;;;14.54;90.30;96363.91;6061668;23;20028;-66
2023/09/06 01:12:55;;;;;;;7.18;4.63;;;15.40;72.10;;;14.56;90.48;96361.06;6084943;23;20447;-66
2023/09/06 01:15:22;;;;;;;7.25;4.82;;;15.50;72.10;;;14.58;89.86;96369.59;6086090;23;20010;-66
2023/09/06 01:17:47;;;;;;;7.35;4.85;;;15.50;72.10;;;14.56;90.27;96359.22;6084744;23;20046;-66
2023/09/06 01:20:43;;;;;;;7.47;4.70;;;15.60;72.10;;;14.55;92.47;96365.53;6061541;23;20047;-66
2023/09/06 01:23:34;;;;;;;5.53;4.75;;;15.50;72.20;;;14.50;92.83;96367.19;6060272;23;20451;-67
2023/09/06 01:26:00;;;;;;;5.88;4.78;;;15.50;72.20;;;14.46;91.95;96360.66;6109908;23;20466;-66
2023/09/06 01:28:27;;;;;;;6.80;4.70;;;15.40;72.60;;;14.41;90.62;96351.47;6111407;23;20397;-67
2023/09/06 01:30:56;;;;;;;7.75;4.85;;;15.40;72.70;;;14.40;92.63;96359.63;6112646;23;20080;-66
2023/09/06 01:33:24;;;;;;;7.20;4.97;;;15.30;72.70;;;14.38;91.79;96353.72;6062791;23;20423;-66
2023/09/06 01:35:51;;;;;;;6.10;4.97;;;15.30;72.70;;;14.36;91.34;96355.75;6084901;23;20510;-66
2023/09/06 01:38:16;;;;;;;6.63;4.55;;;15.30;72.70;;;14.36;90.79;96348.63;6087523;23;20005;-66
2023/09/06 01:40:43;;;;;;;6.20;4.75;;;15.30;72.50;;;14.35;92.30;96356.78;6061916;23;20006;-66
2023/09/06 01:43:09;;;;;;;5.75;4.47;;;15.30;72.50;;;14.32;92.25;96349.25;6086513;23;20057;-66
2023/09/06 01:45:43;;;;;;;8.10;4.15;;;15.30;72.60;;;14.31;93.66;96352.94;6087207;23;20526;-66
2023/09/06 01:48:09;;;;;;;7.97;4.70;;;15.30;72.70;;;14.32;91.08;96349.25;6087157;23;20010;-66
2023/09/06 01:50:35;;;;;;;7.75;4.72;;;15.30;72.80;;;14.33;92.03;96349.06;6063067;23;20005;-66
2023/09/06 01:53:00;;;;;;;7.05;4.88;;;15.40;72.70;;;14.33;92.61;96350.88;6113086;23;20049;-66
2023/09/06 01:55:26;;;;;;;9.10;4.75;;;15.30;72.30;;;14.31;90.40;96345.00;6109111;23;19998;-66
2023/09/06 01:57:52;;;;;;;6.60;4.75;;;15.20;72.20;;;14.29;91.83;96349.69;6110082;23;20097;-66
2023/09/06 02:00:27;;;;;;;6.05;4.88;;;15.20;72.40;;;14.25;91.92;96343.94;6086408;23;20092;-67
2023/09/06 02:02:54;;;;;;;5.70;4.60;;;15.20;72.40;;;14.23;91.26;96345.19;6111172;23;20010;-66
2023/09/06 02:05:20;;;;;;;7.38;4.80;;;15.20;72.50;;;14.20;91.48;96340.31;6086661;23;20010;-66
2023/09/06 02:07:46;;;;;;;8.77;5.10;;;15.10;72.70;;;14.17;92.20;96343.38;6087310;23;20013;-66
2023/09/06 02:10:12;;;;;;;5.57;4.78;;;15.10;72.80;;;14.12;91.71;96349.28;6038300;23;20061;-65
2023/09/06 02:12:38;;;;;;;5.43;4.30;;;15.10;72.90;;;14.11;92.25;96350.28;6114146;23;21312;-66
2023/09/06 02:15:05;;;;;;;6.10;4.47;;;15.10;73.00;;;14.09;92.65;96355.78;6111159;23;20014;-65
2023/09/06 02:17:32;;;;;;;5.78;4.63;;;15.00;72.90;;;14.07;92.97;96352.53;6086701;23;20026;-66
2023/09/06 02:20:12;;;;;;;6.03;5.05;;;15.00;73.20;;;14.05;93.29;96349.28;6086528;23;20014;-66
2023/09/06 02:22:41;;;;;;;6.15;5.03;;;15.10;73.20;;;14.04;92.33;96347.66;6089738;23;20388;-65
2023/09/06 02:25:08;;;;;;;6.55;4.90;;;15.10;73.30;;;14.03;93.47;96345.19;6110688;23;20097;-66
2023/09/06 02:27:34;;;;;;;7.40;5.00;;;15.00;73.30;;;14.01;93.56;96353.34;6086767;23;20061;-66
2023/09/06 02:30:01;;;;;;;6.25;4.78;;;15.00;73.40;;;14.00;94.36;96351.72;6085587;23;20017;-66
2023/09/06 02:32:27;;;;;;;6.70;5.03;;;15.00;73.60;;;14.00;94.56;96353.53;6063069;23;20013;-66
2023/09/06 02:34:53;;;;;;;8.18;4.70;;;15.00;73.70;;;14.01;94.01;96355.16;6083381;23;20403;-65
2023/09/06 02:37:18;;;;;;;8.18;5.13;;;15.10;73.60;;;14.00;95.31;96354.34;6109810;23;20149;-69
2023/09/06 02:39:44;;;;;;;8.15;5.47;;;15.10;73.40;;;13.99;94.23;96354.56;6113394;23;20329;-65
2023/09/06 02:42:10;;;;;;;7.25;4.75;;;15.00;73.30;;;13.97;93.92;96352.13;6112836;23;20439;-65
2023/09/06 02:44:36;;;;;;;8.63;5.22;;;15.00;73.10;;;13.98;93.68;96353.75;6087391;23;20045;-66
2023/09/06 02:47:03;;;;;;;8.00;4.93;;;15.00;73.30;;;13.94;94.20;96357.81;6110881;23;20010;-66
2023/09/06 02:49:29;;;;;;;7.22;5.57;;;15.00;73.20;;;13.94;93.73;96362.28;6110653;23;20017;-69
2023/09/06 02:51:56;;;;;;;5.15;4.55;;;15.00;73.40;;;13.93;95.12;96350.91;6110363;23;20006;-65
2023/09/06 02:54:22;;;;;;;8.02;5.03;;;15.00;73.40;;;13.92;93.91;96364.34;6110257;23;20085;-65
2023/09/06 02:56:48;;;;;;;6.78;5.40;;;15.00;73.40;;;13.90;94.89;96366.38;6111004;23;20030;-66
2023/09/06 02:59:15;;;;;;;6.63;5.28;;;15.00;73.60;;;13.89;94.34;96360.28;6085597;23;20128;-66
2023/09/06 03:01:44;;;;;;;8.60;5.53;;;14.90;73.70;;;13.86;94.64;96360.69;6086479;23;20014;-66
2023/09/06 03:04:13;;;;;;;8.02;5.57;;;14.90;73.80;;;13.83;96.96;96366.38;6110342;23;20037;-66
2023/09/06 03:06:43;;;;;;;8.77;5.60;;;14.90;74.10;;;13.79;96.50;96365.13;6087096;23;20701;-65
2023/09/06 03:09:11;;;;;;;6.78;5.53;;;14.80;74.00;;;13.76;95.80;96370.81;6110590;23;20032;-66
2023/09/06 03:11:37;;;;;;;6.28;5.35;;;14.80;73.90;;;13.68;94.89;96366.56;6109560;23;20443;-66
2023/09/06 03:14:04;;;;;;;8.52;5.10;;;14.70;73.80;;;13.63;94.94;96360.25;6110282;23;20026;-66
2023/09/06 03:16:38;;;;;;;9.38;5.45;;;14.60;74.10;;;13.58;95.52;96363.50;6062322;23;20363;-65
2023/09/06 03:19:10;;;;;;;8.73;5.88;;;14.60;74.20;;;13.56;97.14;96369.97;6110554;23;20017;-67
2023/09/06 03:21:37;;;;;;;8.65;5.10;;;14.60;74.00;;;13.55;96.75;96368.34;6087239;23;20077;-66
2023/09/06 03:24:11;;;;;;;9.23;6.13;;;14.60;74.10;;;13.53;97.37;96375.66;6110411;23;20010;-66
2023/09/06 03:26:43;;;;;;;17.85;13.45;;;14.60;74.30;;;13.51;97.35;96369.78;6110241;23;20013;-67
2023/09/06 03:29:10;;;;;;;19.42;14.82;;;14.60;74.50;;;13.49;96.06;96373.44;6086397;23;24878;-66
2023/09/06 03:31:45;;;;;;;12.57;8.45;;;14.60;74.50;;;13.46;97.89;96371.19;6133371;23;20006;-67
2023/09/06 03:34:13;;;;;;;9.15;7.50;;;14.60;74.20;;;13.43;96.01;96371.59;6086009;23;20021;-65
2023/09/06 03:36:41;;;;;;;12.82;10.57;;;14.50;74.30;;;13.43;97.65;96368.94;6107016;23;20076;-66
2023/09/06 03:39:12;;;;;;;14.93;12.35;;;14.60;74.50;;;13.43;97.51;96376.06;6109764;23;20014;-66
2023/09/06 03:41:40;;;;;;;9.70;8.25;;;14.50;74.30;;;13.40;96.91;96366.72;6110114;23;20104;-66
2023/09/06 03:44:06;;;;;;;11.77;8.57;;;14.50;74.30;;;13.38;97.19;96367.94;6062758;23;20372;-66
2023/09/06 03:46:34;;;;;;;9.63;6.53;;;14.50;74.50;;;13.35;97.47;96369.16;6062183;23;20590;-67
2023/09/06 03:49:05;;;;;;;12.05;7.35;;;14.50;74.60;;;13.33;98.09;96365.06;6086194;23;20010;-66
2023/09/06 03:51:32;;;;;;;;;;;14.50;74.50;;;13.30;100.00;96371.56;6086667;23;20383;-67
2023/09/06 03:53:59;;;;;;;9.57;5.93;;;14.50;74.60;;;13.27;96.63;96371.94;6110763;23;19980;-67
2023/09/06 03:56:24;;;;;;;14.65;8.85;;;14.40;74.70;;;13.26;97.10;96364.22;6109509;23;20006;-67
2023/09/06 03:58:53;;;;;;;12.43;10.32;;;14.40;74.70;;;13.24;98.36;96367.06;6110157;23;20033;-66
2023/09/06 04:01:19;;;;;;;8.88;6.60;;;14.30;74.80;;;13.24;97.73;96364.44;6109559;23;20009;-65
2023/09/06 04:03:47;;;;;;;7.43;5.88;;;14.30;74.80;;;13.22;97.42;96368.28;6085774;23;20076;-66
2023/09/06 04:06:15;;;;;;;7.97;5.57;;;14.30;75.00;;;13.19;98.17;96361.56;6109761;23;20010;-65
2023/09/06 04:08:41;;;;;;;8.63;5.85;;;14.30;74.90;;;13.17;98.44;96360.94;6085553;23;20047;-65
2023/09/06 04:11:09;;;;;;;7.75;6.03;;;14.30;75.00;;;13.15;98.51;96366.41;6109366;23;20004;-65
2023/09/06 04:13:35;;;;;;;6.55;5.85;;;14.20;75.20;;;13.10;99.83;96363.53;6109905;23;20006;-66
2023/09/06 04:16:01;;;;;;;15.30;12.60;;;14.20;75.70;;;13.05;99.32;96362.50;6061253;23;20022;-66
2023/09/06 04:18:28;;;;;;;18.27;13.63;;;14.20;75.70;;;13.01;99.69;96369.19;6062495;23;20097;-66
2023/09/06 04:20:54;;;;;;;13.15;9.38;;;14.10;75.90;;;12.99;100.00;96361.47;6111464;23;20006;-65
2023/09/06 04:23:19;;;;;;;8.07;6.35;;;14.10;76.00;;;12.97;100.00;96366.13;6109796;23;20332;-65
2023/09/06 04:25:45;;;;;;;9.07;5.82;;;14.10;76.10;;;12.96;100.00;96375.06;6109210;23;20010;-65
2023/09/06 04:28:12;;;;;;;12.07;8.23;;;14.00;76.20;;;12.95;100.00;96365.53;6109253;23;20016;-65
2023/09/06 04:30:40;;;;;;;12.52;9.02;;;14.10;76.30;;;12.96;100.00;96367.16;6061505;23;20014;-66
2023/09/06 04:33:08;;;;;;;11.23;9.88;;;14.10;76.40;;;12.98;100.00;96378.31;6084939;23;20380;-66
2023/09/06 04:35:38;;;;;;;8.02;6.93;;;14.10;76.40;;;13.01;100.00;96382.41;6109557;23;20014;-65
2023/09/06 04:38:09;;;;;;;8.48;6.05;;;14.10;76.30;;;13.02;100.00;96384.03;6086256;23;20035;-65
2023/09/06 04:40:35;;;;;;;7.70;5.80;;;14.20;76.20;;;13.01;100.00;96387.69;6109198;23;20006;-65
2023/09/06 04:43:01;;;;;;;8.95;6.50;;;14.20;76.20;;;13.00;100.00;96388.69;6085058;23;20438;-66
2023/09/06 04:45:27;;;;;;;7.20;5.68;;;14.20;76.20;;;13.00;100.00;96389.50;6085000;23;20014;-66
2023/09/06 04:47:52;;;;;;;8.93;6.07;;;14.20;76.20;;;13.00;100.00;96391.34;6085566;23;20009;-65
2023/09/06 04:50:18;;;;;;;9.30;6.25;;;14.20;76.20;;;13.01;100.00;96398.25;6109504;23;20065;-66
2023/09/06 04:52:46;;;;;;;7.97;5.82;;;14.20;76.20;;;13.02;100.00;96408.59;6084908;23;20092;-65
2023/09/06 04:55:14;;;;;;;7.25;5.93;;;14.20;76.10;;;13.04;100.00;96413.69;6085294;23;20020;-65
2023/09/06 04:57:41;;;;;;;8.48;6.20;;;14.20;76.00;;;13.04;100.00;96413.69;6109814;23;20037;-66
2023/09/06 05:00:33;;;;;;;17.05;6.25;;;14.30;76.00;;;13.04;100.00;96403.94;6108836;23;20447;-66
2023/09/06 05:02:57;;;;;;;8.13;6.47;;;14.20;76.00;;;13.06;100.00;96407.19;6088584;23;20085;-66
2023/09/06 05:05:24;;;;;;;10.98;6.15;;;14.30;75.90;;;13.10;100.00;96407.63;6049307;23;20010;-66
2023/09/06 05:07:53;;;;;;;11.50;5.90;;;14.30;76.00;;;13.12;100.00;96410.88;6061826;23;20029;-66
2023/09/06 05:10:19;;;;;;;7.40;6.03;;;14.40;76.00;;;13.14;100.00;96414.16;6084808;23;20447;-66
2023/09/06 05:12:45;;;;;;;8.93;6.47;;;14.40;76.10;;;13.15;100.00;96413.16;6111254;23;20028;-67
2023/09/06 05:15:12;;;;;;;8.75;6.20;;;14.40;76.20;;;13.18;100.00;96415.41;6036730;23;20010;-66
2023/09/06 05:17:39;;;;;;;7.55;5.88;;;14.40;76.20;;;13.20;100.00;96423.97;6061166;23;20101;-67
2023/09/06 05:20:31;;;;;;;7.72;6.05;;;14.50;76.30;;;13.23;100.00;96418.28;6084618;23;20448;-67
2023/09/06 05:22:59;;;;;;;8.32;6.57;;;14.60;76.00;;;13.24;100.00;96422.53;6132465;23;20014;-67
2023/09/06 05:25:24;;;;;;;7.50;6.28;;;14.60;76.10;;;13.27;100.00;96424.78;6060712;23;20010;-68
2023/09/06 05:27:57;;;;;;;10.90;7.35;;;14.60;76.10;;;13.31;100.00;96431.31;6061314;23;20010;-66
2023/09/06 05:30:23;;;;;;;11.13;9.20;;;14.60;76.30;;;13.33;100.00;96429.28;6060038;23;20076;-68
2023/09/06 05:32:49;;;;;;;10.70;9.57;;;14.70;76.40;;;13.37;100.00;96433.16;6109539;23;20344;-68
2023/09/06 05:35:15;;;;;;;10.45;7.25;;;14.80;76.50;;;13.43;100.00;96442.13;6130887;23;20336;-65
2023/09/06 05:37:41;;;;;;;8.00;6.30;;;14.80;76.40;;;13.46;100.00;96439.91;6085069;23;20024;-68
2023/09/06 05:40:08;;;;;;;9.88;6.45;;;14.80;76.60;;;13.52;100.00;96448.03;6060117;23;20013;-68
2023/09/06 05:42:34;;;;;;;11.05;6.60;;;14.90;76.50;;;13.57;100.00;96445.59;6036507;23;20465;-67
2023/09/06 05:45:00;;;;;;;12.77;6.10;;;15.00;76.70;;;13.62;100.00;96443.22;6085320;23;20014;-67
2023/09/06 05:47:25;;;;;;;10.80;6.60;;;15.10;76.40;;;13.68;100.00;96445.03;6084790;23;20013;-67
2023/09/06 05:49:55;;;;;;;7.35;6.05;;;15.10;76.20;;;13.72;100.00;96451.56;6085676;23;20045;-66
2023/09/06 05:52:24;;;;;;;8.30;6.43;;;15.10;75.80;;;13.78;100.00;96448.91;6108699;23;20464;-67
2023/09/06 05:54:49;;;;;;;12.13;6.43;;;15.30;75.90;;;13.84;100.00;96451.81;6108990;23;20014;-67
2023/09/06 05:57:15;;;;;;;8.15;5.85;;;15.40;75.60;;;13.94;100.00;96453.03;6108651;23;20333;-66
2023/09/06 05:59:41;;;;;;;7.40;6.03;;;15.50;75.50;;;14.02;100.00;96446.72;6061544;23;20016;-68
2023/09/06 06:02:07;;;;;;;7.90;6.00;;;15.60;75.40;;;14.10;100.00;96451.84;6108256;23;20006;-67
2023/09/06 06:04:34;;;;;;;9.10;6.35;;;15.60;75.40;;;14.19;100.00;96450.63;6084776;23;20081;-66
2023/09/06 06:07:00;;;;;;;7.68;5.95;;;15.70;75.10;;;14.28;100.00;96448.59;6085467;23;19998;-67
2023/09/06 06:09:25;;;;;;;8.68;6.13;;;15.80;74.70;;;14.35;100.00;96446.75;6108519;23;20053;-67
2023/09/06 06:11:54;;;;;;;7.85;6.15;;;15.90;74.40;;;14.41;100.00;96443.28;6110089;23;20494;-67
2023/09/06 06:14:22;;;;;;;9.70;6.03;;;16.00;74.20;;;14.49;100.00;96451.06;6110874;23;20058;-67
2023/09/06 06:16:48;;;;;;;6.90;6.18;;;16.00;74.30;;;14.57;100.00;96456.16;6111069;23;20046;-67
2023/09/06 06:19:14;;;;;;;8.25;5.75;;;16.10;73.80;;;14.62;100.00;96460.81;6112659;23;20002;-66
2023/09/06 06:21:39;;;;;;;8.45;6.03;;;16.20;73.40;;;14.69;100.00;96457.13;6086425;23;20032;-67
2023/09/06 06:24:09;;;;;;;8.10;6.00;;;16.40;72.50;;;14.77;100.00;96452.66;6085874;23;20068;-68
2023/09/06 06:26:35;;;;;;;9.63;6.10;;;16.50;71.90;;;14.84;100.00;96450.81;6086427;23;20017;-67
2023/09/06 06:29:01;;;;;;;8.57;6.25;;;16.60;71.10;;;14.93;100.00;96446.91;6063187;23;20010;-67
2023/09/06 06:31:28;;;;;;;6.60;5.90;;;16.70;71.00;;;15.00;100.00;96442.44;6109378;23;20002;-67
2023/09/06 06:33:54;;;;;;;11.10;6.35;;;16.70;71.30;;;15.10;99.88;96450.75;6110762;23;20100;-67
2023/09/06 06:36:19;;;;;;;6.90;6.20;;;16.80;70.60;;;15.18;99.75;96450.53;6107864;23;20036;-68
2023/09/06 06:38:46;;;;;;;9.82;6.25;;;16.80;70.90;;;15.27;99.20;96451.91;6110759;23;19998;-67
2023/09/06 06:41:22;;;;;;;9.23;6.40;;;17.00;70.70;;;15.38;99.42;96452.28;6062341;23;20440;-67
2023/09/06 06:43:54;;;;;;;8.43;6.50;;;17.00;70.40;;;15.46;98.10;96455.50;6064782;23;20068;-67
2023/09/06 06:46:34;;;;;;;8.48;6.40;;;17.10;70.20;;;15.58;98.43;96455.66;6110731;23;20056;-67
2023/09/06 06:49:02;;;;;;;8.00;6.75;;;17.20;70.10;;;15.67;97.99;96459.72;6063772;23;20006;-66
2023/09/06 06:51:34;;;;;;;7.65;6.18;;;17.40;69.50;;;15.76;97.26;96457.63;6085897;23;20440;-69
2023/09/06 06:54:07;;;;;;;9.35;6.47;;;17.40;69.40;;;15.86;97.21;96458.81;6087655;23;20006;-69
2023/09/06 06:56:34;;;;;;;8.50;6.93;;;17.60;69.80;;;15.97;96.39;96459.16;6063112;23;20174;-69
2023/09/06 06:59:00;;;;;;;8.13;6.82;;;17.70;68.50;;;16.11;94.78;96460.69;6062522;23;20464;-69
2023/09/06 07:01:27;;;;;;;8.80;6.25;;;17.90;68.10;;;16.23;93.56;96456.31;6084903;23;20009;-69
2023/09/06 07:03:54;;;;;;;7.60;5.95;;;18.10;67.20;;;16.39;93.80;96452.31;6039252;23;20388;-68
2023/09/06 07:06:22;;;;;;;10.20;5.78;;;18.30;67.20;;;16.56;93.23;96453.41;6111478;23;20006;-69
2023/09/06 07:08:48;;;;;;;7.35;6.10;;;18.60;66.40;;;16.74;92.43;96452.66;6111520;23;20014;-69
2023/09/06 07:11:15;;;;;;;8.45;5.75;;;18.80;65.60;;;16.93;92.06;96448.16;6108725;23;20017;-65
2023/09/06 07:13:42;;;;;;;8.43;5.32;;;19.20;64.80;;;17.18;90.05;96453.44;6086104;23;20478;-68
2023/09/06 07:16:09;;;;;;;9.65;5.28;;;20.10;61.50;;;17.45;88.88;96446.78;6109618;23;20006;-69
2023/09/06 07:18:35;;;;;;;6.07;4.57;;;20.70;59.10;;;17.75;89.38;96452.16;6061353;23;20026;-68
2023/09/06 07:21:01;;;;;;;7.85;5.35;;;21.30;58.90;;;18.07;88.19;96458.03;6103663;23;20026;-67
2023/09/06 07:23:27;;;;;;;7.32;5.13;;;21.60;57.50;;;18.42;88.51;96454.66;6108455;23;20013;-66
2023/09/06 07:25:52;;;;;;;5.90;4.03;;;22.10;56.40;;;18.81;86.46;96451.38;6061157;23;20446;-66
2023/09/06 07:28:21;;;;;;;7.07;5.05;;;22.70;54.40;;;19.24;84.04;96439.50;6084410;23;20026;-68
2023/09/06 07:30:47;;;;;;;6.60;4.57;;;23.20;53.40;;;19.69;83.23;96438.81;6060272;23;20006;-69
2023/09/06 07:33:13;;;;;;;7.43;4.70;;;23.60;52.40;;;20.13;82.12;96432.69;6084536;23;20029;-68
2023/09/06 07:35:42;;;;;;;6.20;5.07;;;24.00;51.20;;;20.64;78.64;96435.41;6058262;23;20456;-68
2023/09/06 07:38:08;;;;;;;7.55;4.60;;;24.40;49.90;;;21.12;77.21;96424.06;6084049;23;20097;-68
2023/09/06 07:40:34;;;;;;;6.25;4.30;;;24.70;49.40;;;21.60;73.94;96420.69;6108513;23;20014;-67
2023/09/06 07:42:59;;;;;;;6.25;4.10;;;25.10;48.20;;;22.08;72.90;96420.94;6108906;23;20010;-68
2023/09/06 07:45:25;;;;;;;6.93;4.60;;;25.50;47.90;;;22.45;69.93;96416.44;6109187;23;20010;-67
2023/09/06 07:47:51;;;;;;;6.20;4.20;;;25.70;46.40;;;22.77;67.80;96412.91;6107832;23;22031;-67
2023/09/06 07:50:17;;;;;;;5.20;3.95;;;26.00;46.30;;;23.14;67.18;96407.53;6108111;23;20013;-67
2023/09/06 07:52:43;;;;;;;7.50;4.00;;;26.40;46.40;;;23.50;66.34;96406.59;6037112;23;20036;-67
2023/09/06 07:55:12;;;;;;;4.88;3.83;;;26.60;46.30;;;23.75;64.66;96400.53;6083806;23;20025;-67
2023/09/06 07:57:38;;;;;;;6.63;3.90;;;26.80;45.10;;;24.03;63.65;96401.94;6060681;23;20196;-66
2023/09/06 08:00:06;;;;;;;8.43;3.80;;;27.10;44.40;;;24.34;62.06;96402.00;6085047;23;20009;-67
2023/09/06 08:02:31;;;;;;;7.60;3.83;;;27.30;44.00;;;24.58;61.16;96399.56;6084038;23;20002;-67
2023/09/06 08:04:57;;;;;;;4.90;3.60;;;27.50;43.40;;;24.81;60.34;96390.09;6108649;23;20510;-69
2023/09/06 08:07:23;;;;;;;4.85;3.67;;;27.80;43.20;;;24.95;58.35;96388.47;6109802;23;20012;-66
2023/09/06 08:09:49;;;;;;;6.65;3.85;;;27.90;41.80;;;25.10;58.37;96380.38;6110247;23;20006;-68
2023/09/06 08:12:15;;;;;;;6.35;3.90;;;28.20;42.50;;;25.28;57.96;96382.47;6085148;23;20333;-68
2023/09/06 08:14:42;;;;;;;4.85;3.83;;;28.50;42.20;;;25.47;57.37;96379.97;6108439;23;20101;-68
2023/09/06 08:17:08;;;;;;;7.40;3.83;;;28.50;42.40;;;25.62;56.37;96377.22;6084356;23;20025;-66
2023/09/06 08:19:34;;;;;;;5.18;4.05;;;28.60;41.10;;;25.85;55.56;96374.94;6060973;23;20010;-65
2023/09/06 08:21:59;;;;;;;4.68;3.50;;;28.90;41.10;;;26.00;54.20;96369.44;6083831;23;20076;-65
2023/09/06 08:24:25;;;;;;;4.68;3.53;;;29.10;39.80;;;26.17;53.83;96369.06;6084209;23;20006;-67
2023/09/06 08:26:51;;;;;;;5.60;3.50;;;29.20;39.90;;;26.34;52.94;96368.66;6110914;23;20014;-67
2023/09/06 08:29:16;;;;;;;4.50;3.47;;;29.50;39.80;;;26.48;52.82;96365.06;6109355;23;20022;-67
2023/09/06 08:31:42;;;;;;;4.75;3.60;;;29.60;39.10;;;26.62;52.35;96367.09;6082885;23;20541;-67
2023/09/06 08:34:10;;;;;;;5.45;3.28;;;29.60;39.30;;;26.78;50.99;96363.97;6060354;23;20014;-67
2023/09/06 08:36:35;;;;;;;5.57;3.45;;;29.70;38.80;;;26.91;50.90;96375.16;6058312;23;20053;-67
2023/09/06 08:39:01;;;;;;;4.45;3.35;;;29.80;40.10;;;27.02;51.14;96377.50;6110492;23;20085;-67
2023/09/06 08:41:27;;;;;;;5.43;3.47;;;30.00;39.50;;;27.17;50.73;96378.44;6107935;23;20058;-68
2023/09/06 08:43:53;;;;;;;5.57;3.45;;;30.10;38.80;;;27.23;48.99;96359.16;6061085;23;20010;-66
2023/09/06 08:46:28;;;;;;;4.25;3.13;;;30.20;37.10;;;27.36;47.84;96344.13;6084202;23;20028;-67
2023/09/06 08:48:55;;;;;;;7.18;3.38;;;30.30;38.30;;;27.52;49.23;96359.06;6061064;23;20093;-67
2023/09/06 08:51:21;;;;;;;6.60;3.47;;;30.50;38.90;;;27.71;49.06;96368.03;6060118;23;20009;-66
2023/09/06 08:53:47;;;;;;;4.45;3.28;;;30.60;38.50;;;27.84;48.83;96354.88;6108860;23;20347;-66
2023/09/06 08:56:15;;;;;;;5.35;2.83;;;30.70;37.90;;;27.98;48.49;96348.44;6108395;23;20057;-67
2023/09/06 08:58:41;;;;;;;6.18;4.85;;;30.80;38.30;;;28.10;48.69;96358.03;6061341;23;20046;-68
2023/09/06 09:01:06;;;;;;;5.13;3.72;;;30.80;39.40;;;28.20;47.64;96347.81;6060818;23;20567;-67
2023/09/06 09:03:33;;;;;;;8.60;3.45;;;31.00;36.90;;;28.32;47.93;96359.03;6035853;23;20014;-67
2023/09/06 09:05:59;;;;;;;3.58;3.00;;;31.00;38.50;;;28.47;47.59;96360.66;6059885;23;20010;-67
2023/09/06 09:08:28;;;;;;;6.10;3.30;;;31.10;38.30;;;28.65;47.69;96365.22;6084772;23;20009;-67
2023/09/06 09:11:28;;;;;;;8.20;3.50;;;31.30;38.90;;;28.86;44.54;96337.81;6084055;23;20432;-66
2023/09/06 09:13:54;;;;;;;4.45;3.00;;;31.50;36.70;;;28.99;46.94;96361.41;6086928;23;20002;-67
2023/09/06 09:16:23;;;;;;;4.13;2.80;;;31.60;37.10;;;29.16;46.03;96356.16;6109412;23;20006;-67
2023/09/06 09:18:49;;;;;;;4.25;3.10;;;31.70;36.70;;;29.34;44.76;96349.03;6084821;23;20081;-68
2023/09/06 09:21:15;;;;;;;5.13;3.00;;;32.10;34.60;;;29.51;43.39;96345.75;6108885;23;20010;-67
2023/09/06 09:23:52;;;;;;;5.45;3.90;;;32.30;34.50;;;29.71;42.26;96326.31;6108071;23;20018;-67
2023/09/06 09:26:21;;;;;;;5.22;3.45;;;32.20;35.50;;;29.86;43.70;96342.22;6107617;23;20010;-68
2023/09/06 09:28:48;;;;;;;4.23;3.47;;;32.40;35.70;;;30.05;43.12;96330.44;6108725;23;20089;-67
2023/09/06 09:31:15;;;;;;;5.85;3.70;;;32.60;34.70;;;30.25;42.56;96338.09;6060605;23;20014;-67
2023/09/06 09:33:44;;;;;;;6.22;3.90;;;32.70;35.80;;;30.41;42.16;96328.47;6060132;23;20098;-67
2023/09/06 09:36:14;;;;;;;6.00;4.22;;;32.80;35.50;;;30.62;40.28;96317.13;6106592;23;20002;-67
2023/09/06 09:38:49;;;;;;;8.23;5.45;;;33.00;34.30;;;30.80;40.10;96315.28;6110660;23;20073;-67
2023/09/06 09:41:15;;;;;;;5.72;4.22;;;33.20;34.90;;;30.96;41.31;96325.41;6084838;23;20006;-67
2023/09/06 09:43:41;;;;;;;4.13;2.88;;;33.40;34.90;;;31.11;40.64;96326.09;6107903;23;20608;-67
2023/09/06 09:46:07;;;;;;;5.95;2.85;;;33.50;34.50;;;31.30;40.16;96315.81;6109890;23;20006;-67
2023/09/06 09:48:33;;;;;;;6.63;2.95;;;33.70;33.80;;;31.48;39.87;96306.56;6062843;23;20006;-67
2023/09/06 09:51:07;;;;;;;4.78;3.10;;;33.90;33.00;;;31.64;39.55;96315.84;6062484;23;20010;-67
2023/09/06 09:53:33;;;;;;;7.68;3.42;;;34.10;34.00;;;31.78;39.34;96310.28;6065129;23;20026;-67
2023/09/06 09:56:06;;;;;;;4.10;3.30;;;34.10;33.20;;;31.96;38.29;96308.38;6086029;23;20088;-68
2023/09/06 09:58:35;;;;;;;3.75;3.30;;;34.50;34.00;;;32.16;38.62;96305.00;6062788;23;20025;-68
2023/09/06 10:01:05;;;;;;;7.78;3.10;;;34.60;33.00;;;32.37;38.25;96304.34;6059721;23;20021;-69
2023/09/06 10:03:33;;;;;;;6.40;2.80;;;34.80;32.80;;;32.61;38.18;96304.59;6063353;23;20077;-66
2023/09/06 10:06:00;;;;;;;12.30;8.90;;;35.10;32.40;;;32.88;37.86;96298.75;6086478;23;20006;-68
2023/09/06 10:08:26;;;;;;;4.95;3.78;;;35.40;31.60;;;33.28;37.55;96301.13;6062275;23;20099;-67
2023/09/06 10:10:52;;;;;;;7.43;3.80;;;35.70;32.00;;;33.73;37.08;96297.81;6082291;23;20034;-70
2023/09/06 10:13:18;;;;;;;5.88;3.35;;;36.10;30.90;;;34.03;36.47;96293.88;6061415;23;20009;-71
2023/09/06 10:15:44;;;;;;;4.22;3.17;;;36.30;30.50;;;34.42;35.73;96296.44;6061749;23;20403;-70
2023/09/06 10:18:09;;;;;;;6.78;3.25;;;36.60;30.40;;;34.72;35.37;96291.59;6061816;23;20096;-70
2023/09/06 10:20:37;;;;;;;6.93;3.13;;;36.80;30.20;;;34.90;34.86;96290.28;6085329;23;20053;-70